sensor_id;sensor_type;location;lat;lon;timestamp;temperature;humidity
28725;DHT22;43472;48.980;9.646;2023-08-21T00:04:24;23.10;99.90
28725;DHT22;43472;48.980;9.646;2023-08-21T00:09:26;23.10;99.90
28725;DHT22;43472;48.980;9.646;2023-08-21T00:14:28;23.10;99.90
28725;DHT22;43472;48.980;9.646;2023-08-21T00:19:30;23.10;99.90
28725;DHT22;43472;48.980;9.646;2023-08-21T00:24:33;23.20;99.90
28725;DHT22;43472;48.980;9.646;2023-08-21T00:29:35;23.20;99.90
28725;DHT22;43472;48.980;9.646;2023-08-21T00:34:38;23.00;99.90
28725;DHT22;43472;48.980;9.646;2023-08-21T00:39:40;23.10;99.90
28725;DHT22;43472;48.980;9.646;2023-08-21T00:44:42;23.00;99.90
28725;DHT22;43472;48.980;9.646;2023-08-21T00:49:44;23.00;99.90
28725;DHT22;43472;48.980;9.646;2023-08-21T00:54:46;23.00;99.90
28725;DHT22;43472;48.980;9.646;2023-08-21T00:59:48;22.80;99.90
28725;DHT22;43472;48.980;9.646;2023-08-21T01:04:50;22.80;99.90
28725;DHT22;43472;48.980;9.646;2023-08-21T01:10:09;22.80;99.90
28725;DHT22;43472;48.980;9.646;2023-08-21T01:15:13;22.60;99.90
28725;DHT22;43472;48.980;9.646;2023-08-21T01:20:17;22.60;99.90
28725;DHT22;43472;48.980;9.646;2023-08-21T01:25:20;22.60;99.90
28725;DHT22;43472;48.980;9.646;2023-08-21T01:30:22;22.60;99.90
28725;DHT22;43472;48.980;9.646;2023-08-21T01:35:25;22.70;99.90
28725;DHT22;43472;48.980;9.646;2023-08-21T01:40:28;20.80;99.90
28725;DHT22;43472;48.980;9.646;2023-08-21T01:45:30;22.20;99.90
28725;DHT22;43472;48.980;9.646;2023-08-21T01:50:32;22.30;99.90
28725;DHT22;43472;48.980;9.646;2023-08-21T01:55:33;22.20;99.90
28725;DHT22;43472;48.980;9.646;2023-08-21T02:00:36;22.10;99.90
28725;DHT22;43472;48.980;9.646;2023-08-21T02:05:39;22.10;99.90
28725;DHT22;43472;48.980;9.646;2023-08-21T02:10:50;22.00;99.90
28725;DHT22;43472;48.980;9.646;2023-08-21T02:21:00;22.10;99.90
28725;DHT22;43472;48.980;9.646;2023-08-21T02:26:03;22.00;99.90
28725;DHT22;43472;48.980;9.646;2023-08-21T02:31:09;22.20;99.90
28725;DHT22;43472;48.980;9.646;2023-08-21T02:36:11;21.70;99.90
28725;DHT22;43472;48.980;9.646;2023-08-21T02:41:13;21.60;99.90
28725;DHT22;43472;48.980;9.646;2023-08-21T02:46:18;21.60;99.90
28725;DHT22;43472;48.980;9.646;2023-08-21T02:51:21;21.60;99.90
28725;DHT22;43472;48.980;9.646;2023-08-21T02:56:23;21.60;99.90
28725;DHT22;43472;48.980;9.646;2023-08-21T03:01:25;21.70;99.90
28725;DHT22;43472;48.980;9.646;2023-08-21T03:06:26;21.60;99.90
28725;DHT22;43472;48.980;9.646;2023-08-21T03:11:30;21.60;99.90
28725;DHT22;43472;48.980;9.646;2023-08-21T03:16:32;21.30;99.90
28725;DHT22;43472;48.980;9.646;2023-08-21T03:21:34;21.20;99.90
28725;DHT22;43472;48.980;9.646;2023-08-21T03:26:36;21.30;99.90
28725;DHT22;43472;48.980;9.646;2023-08-21T03:31:37;21.30;99.90
28725;DHT22;43472;48.980;9.646;2023-08-21T03:36:39;21.20;99.90
28725;DHT22;43472;48.980;9.646;2023-08-21T03:41:41;21.00;99.90
28725;DHT22;43472;48.980;9.646;2023-08-21T03:46:43;21.10;99.90
28725;DHT22;43472;48.980;9.646;2023-08-21T03:51:45;21.00;99.90
28725;DHT22;43472;48.980;9.646;2023-08-21T03:56:47;21.00;99.90
28725;DHT22;43472;48.980;9.646;2023-08-21T04:01:49;21.00;99.90
28725;DHT22;43472;48.980;9.646;2023-08-21T04:06:51;21.00;99.90
28725;DHT22;43472;48.980;9.646;2023-08-21T04:11:53;20.90;99.90
28725;DHT22;43472;48.980;9.646;2023-08-21T04:16:55;21.00;99.90
28725;DHT22;43472;48.980;9.646;2023-08-21T04:21:57;21.00;99.90
28725;DHT22;43472;48.980;9.646;2023-08-21T04:27:01;20.90;99.90
28725;DHT22;43472;48.980;9.646;2023-08-21T04:32:04;20.70;99.90
28725;DHT22;43472;48.980;9.646;2023-08-21T04:37:06;20.60;99.90
28725;DHT22;43472;48.980;9.646;2023-08-21T04:42:09;20.60;99.90
28725;DHT22;43472;48.980;9.646;2023-08-21T04:52:24;20.60;99.90
28725;DHT22;43472;48.980;9.646;2023-08-21T04:57:27;20.50;99.90
28725;DHT22;43472;48.980;9.646;2023-08-21T05:02:30;20.70;99.90
28725;DHT22;43472;48.980;9.646;2023-08-21T05:07:32;20.70;99.90
28725;DHT22;43472;48.980;9.646;2023-08-21T05:12:35;20.60;99.90
28725;DHT22;43472;48.980;9.646;2023-08-21T05:17:37;20.70;99.90
28725;DHT22;43472;48.980;9.646;2023-08-21T05:22:40;20.90;99.90
28725;DHT22;43472;48.980;9.646;2023-08-21T05:27:42;20.90;99.90
28725;DHT22;43472;48.980;9.646;2023-08-21T05:32:43;20.90;99.90
28725;DHT22;43472;48.980;9.646;2023-08-21T05:37:45;21.10;99.90
28725;DHT22;43472;48.980;9.646;2023-08-21T05:42:47;21.20;99.90
28725;DHT22;43472;48.980;9.646;2023-08-21T05:47:49;21.30;99.90
28725;DHT22;43472;48.980;9.646;2023-08-21T05:52:51;21.40;99.90
28725;DHT22;43472;48.980;9.646;2023-08-21T05:57:56;21.50;99.90
28725;DHT22;43472;48.980;9.646;2023-08-21T06:02:58;21.60;99.90
28725;DHT22;43472;48.980;9.646;2023-08-21T06:08:00;21.70;99.90
28725;DHT22;43472;48.980;9.646;2023-08-21T06:13:03;21.70;99.90
28725;DHT22;43472;48.980;9.646;2023-08-21T06:18:05;21.70;99.90
28725;DHT22;43472;48.980;9.646;2023-08-21T06:23:07;21.90;99.90
28725;DHT22;43472;48.980;9.646;2023-08-21T06:28:09;22.50;99.90
28725;DHT22;43472;48.980;9.646;2023-08-21T06:33:12;22.50;99.90
28725;DHT22;43472;48.980;9.646;2023-08-21T06:38:14;22.60;99.90
28725;DHT22;43472;48.980;9.646;2023-08-21T06:43:18;22.80;99.90
28725;DHT22;43472;48.980;9.646;2023-08-21T06:48:20;23.00;99.90
28725;DHT22;43472;48.980;9.646;2023-08-21T06:53:22;23.00;99.90
28725;DHT22;43472;48.980;9.646;2023-08-21T06:58:25;23.30;99.90
28725;DHT22;43472;48.980;9.646;2023-08-21T07:03:28;23.40;99.90
28725;DHT22;43472;48.980;9.646;2023-08-21T07:08:31;23.60;99.90
28725;DHT22;43472;48.980;9.646;2023-08-21T07:13:50;23.70;99.90
28725;DHT22;43472;48.980;9.646;2023-08-21T07:18:52;24.10;99.90
28725;DHT22;43472;48.980;9.646;2023-08-21T07:23:54;24.50;99.90
28725;DHT22;43472;48.980;9.646;2023-08-21T07:28:56;24.70;99.90
28725;DHT22;43472;48.980;9.646;2023-08-21T07:33:58;24.70;99.90
28725;DHT22;43472;48.980;9.646;2023-08-21T07:39:00;24.80;99.90
28725;DHT22;43472;48.980;9.646;2023-08-21T07:44:02;24.50;99.90
28725;DHT22;43472;48.980;9.646;2023-08-21T07:49:04;24.60;99.90
28725;DHT22;43472;48.980;9.646;2023-08-21T07:54:06;25.30;99.90
28725;DHT22;43472;48.980;9.646;2023-08-21T07:59:08;24.90;99.90
28725;DHT22;43472;48.980;9.646;2023-08-21T08:04:10;24.90;99.90
28725;DHT22;43472;48.980;9.646;2023-08-21T08:09:13;25.60;99.90
28725;DHT22;43472;48.980;9.646;2023-08-21T08:14:15;25.60;99.90
28725;DHT22;43472;48.980;9.646;2023-08-21T08:19:17;25.70;99.90
28725;DHT22;43472;48.980;9.646;2023-08-21T08:24:19;25.70;99.90
28725;DHT22;43472;48.980;9.646;2023-08-21T08:29:22;25.90;99.90
28725;DHT22;43472;48.980;9.646;2023-08-21T08:34:23;25.90;99.90
28725;DHT22;43472;48.980;9.646;2023-08-21T08:39:26;25.50;99.90
28725;DHT22;43472;48.980;9.646;2023-08-21T08:44:29;25.30;99.90
28725;DHT22;43472;48.980;9.646;2023-08-21T08:49:32;25.50;99.90
28725;DHT22;43472;48.980;9.646;2023-08-21T08:54:34;25.60;99.90
28725;DHT22;43472;48.980;9.646;2023-08-21T08:59:37;26.00;99.90
28725;DHT22;43472;48.980;9.646;2023-08-21T09:04:43;24.80;99.90
28725;DHT22;43472;48.980;9.646;2023-08-21T09:09:46;24.60;99.90
28725;DHT22;43472;48.980;9.646;2023-08-21T09:14:50;24.80;99.90
28725;DHT22;43472;48.980;9.646;2023-08-21T09:19:52;25.10;99.90
28725;DHT22;43472;48.980;9.646;2023-08-21T09:25:05;25.30;99.90
28725;DHT22;43472;48.980;9.646;2023-08-21T09:30:12;25.30;99.90
28725;DHT22;43472;48.980;9.646;2023-08-21T09:35:18;26.60;99.90
28725;DHT22;43472;48.980;9.646;2023-08-21T09:40:21;26.30;99.90
28725;DHT22;43472;48.980;9.646;2023-08-21T09:45:25;26.30;99.90
28725;DHT22;43472;48.980;9.646;2023-08-21T09:50:29;25.80;99.90
28725;DHT22;43472;48.980;9.646;2023-08-21T09:55:32;26.90;99.90
28725;DHT22;43472;48.980;9.646;2023-08-21T10:00:37;27.10;99.90
28725;DHT22;43472;48.980;9.646;2023-08-21T10:05:39;26.30;99.90
28725;DHT22;43472;48.980;9.646;2023-08-21T10:10:41;25.80;99.90
28725;DHT22;43472;48.980;9.646;2023-08-21T10:15:44;27.00;99.90
28725;DHT22;43472;48.980;9.646;2023-08-21T10:20:50;27.30;99.90
28725;DHT22;43472;48.980;9.646;2023-08-21T10:25:57;25.80;99.90
28725;DHT22;43472;48.980;9.646;2023-08-21T10:31:31;25.60;99.90
28725;DHT22;43472;48.980;9.646;2023-08-21T10:42:11;25.60;99.90
28725;DHT22;43472;48.980;9.646;2023-08-21T10:52:30;26.00;99.90
28725;DHT22;43472;48.980;9.646;2023-08-21T10:57:35;26.50;99.90
28725;DHT22;43472;48.980;9.646;2023-08-21T11:02:39;27.10;99.90
28725;DHT22;43472;48.980;9.646;2023-08-21T11:07:46;27.50;99.90
28725;DHT22;43472;48.980;9.646;2023-08-21T11:12:58;26.50;99.90
28725;DHT22;43472;48.980;9.646;2023-08-21T11:18:04;26.70;99.90
28725;DHT22;43472;48.980;9.646;2023-08-21T11:23:07;26.00;99.90
28725;DHT22;43472;48.980;9.646;2023-08-21T11:28:09;26.00;99.90
28725;DHT22;43472;48.980;9.646;2023-08-21T11:33:12;28.80;99.90
28725;DHT22;43472;48.980;9.646;2023-08-21T11:38:22;30.20;99.90
28725;DHT22;43472;48.980;9.646;2023-08-21T11:43:40;30.60;99.90
28725;DHT22;43472;48.980;9.646;2023-08-21T11:48:42;29.80;99.90
28725;DHT22;43472;48.980;9.646;2023-08-21T11:53:48;30.30;99.90
28725;DHT22;43472;48.980;9.646;2023-08-21T11:58:53;29.80;99.90
28725;DHT22;43472;48.980;9.646;2023-08-21T12:03:55;31.90;99.90
28725;DHT22;43472;48.980;9.646;2023-08-21T12:08:58;30.40;99.90
28725;DHT22;43472;48.980;9.646;2023-08-21T12:14:03;30.30;99.90
28725;DHT22;43472;48.980;9.646;2023-08-21T12:19:05;30.50;99.90
28725;DHT22;43472;48.980;9.646;2023-08-21T12:24:11;30.60;99.90
28725;DHT22;43472;48.980;9.646;2023-08-21T12:29:13;28.00;99.90
28725;DHT22;43472;48.980;9.646;2023-08-21T12:34:15;27.70;99.90
28725;DHT22;43472;48.980;9.646;2023-08-21T12:39:18;28.20;99.90
28725;DHT22;43472;48.980;9.646;2023-08-21T12:44:20;28.10;99.90
28725;DHT22;43472;48.980;9.646;2023-08-21T12:49:22;32.60;99.90
28725;DHT22;43472;48.980;9.646;2023-08-21T12:54:24;32.60;99.90
28725;DHT22;43472;48.980;9.646;2023-08-21T12:59:28;32.40;99.90
28725;DHT22;43472;48.980;9.646;2023-08-21T13:04:30;32.40;99.90
28725;DHT22;43472;48.980;9.646;2023-08-21T13:09:32;32.40;99.90
28725;DHT22;43472;48.980;9.646;2023-08-21T13:14:35;31.90;99.90
28725;DHT22;43472;48.980;9.646;2023-08-21T13:19:38;32.70;99.90
28725;DHT22;43472;48.980;9.646;2023-08-21T13:24:40;31.90;99.90
28725;DHT22;43472;48.980;9.646;2023-08-21T13:29:45;31.10;99.90
28725;DHT22;43472;48.980;9.646;2023-08-21T13:34:48;33.50;99.90
28725;DHT22;43472;48.980;9.646;2023-08-21T13:39:51;32.60;99.90
28725;DHT22;43472;48.980;9.646;2023-08-21T13:44:55;30.80;99.90
28725;DHT22;43472;48.980;9.646;2023-08-21T13:49:58;29.20;99.90
28725;DHT22;43472;48.980;9.646;2023-08-21T13:55:02;32.10;99.90
28725;DHT22;43472;48.980;9.646;2023-08-21T14:00:07;34.20;99.90
28725;DHT22;43472;48.980;9.646;2023-08-21T14:05:10;32.30;99.90
28725;DHT22;43472;48.980;9.646;2023-08-21T14:10:18;32.00;99.90
28725;DHT22;43472;48.980;9.646;2023-08-21T14:15:20;31.40;99.90
28725;DHT22;43472;48.980;9.646;2023-08-21T14:20:22;31.00;99.90
28725;DHT22;43472;48.980;9.646;2023-08-21T14:25:24;27.80;99.90
28725;DHT22;43472;48.980;9.646;2023-08-21T14:30:26;27.20;99.90
28725;DHT22;43472;48.980;9.646;2023-08-21T14:35:28;26.80;99.90
28725;DHT22;43472;48.980;9.646;2023-08-21T14:40:31;27.30;99.90
28725;DHT22;43472;48.980;9.646;2023-08-21T14:45:32;30.80;99.90
28725;DHT22;43472;48.980;9.646;2023-08-21T14:50:34;28.20;99.90
28725;DHT22;43472;48.980;9.646;2023-08-21T14:55:36;28.00;99.90
28725;DHT22;43472;48.980;9.646;2023-08-21T15:00:38;26.40;99.90
28725;DHT22;43472;48.980;9.646;2023-08-21T15:05:42;27.90;99.90
28725;DHT22;43472;48.980;9.646;2023-08-21T15:10:44;31.30;99.90
28725;DHT22;43472;48.980;9.646;2023-08-21T15:15:46;33.20;99.90
28725;DHT22;43472;48.980;9.646;2023-08-21T15:25:51;29.40;99.90
28725;DHT22;43472;48.980;9.646;2023-08-21T15:30:54;29.80;99.90
28725;DHT22;43472;48.980;9.646;2023-08-21T15:35:57;30.20;99.90
28725;DHT22;43472;48.980;9.646;2023-08-21T15:40:59;29.80;99.90
28725;DHT22;43472;48.980;9.646;2023-08-21T15:46:04;29.30;99.90
28725;DHT22;43472;48.980;9.646;2023-08-21T15:51:08;27.90;99.90
28725;DHT22;43472;48.980;9.646;2023-08-21T16:01:12;26.70;99.90
28725;DHT22;43472;48.980;9.646;2023-08-21T16:06:14;29.90;99.90
28725;DHT22;43472;48.980;9.646;2023-08-21T16:11:16;27.90;99.90
28725;DHT22;43472;48.980;9.646;2023-08-21T16:16:18;26.90;99.90
28725;DHT22;43472;48.980;9.646;2023-08-21T16:21:21;27.00;99.90
28725;DHT22;43472;48.980;9.646;2023-08-21T16:26:23;26.20;99.90
28725;DHT22;43472;48.980;9.646;2023-08-21T16:31:26;27.80;99.90
28725;DHT22;43472;48.980;9.646;2023-08-21T16:36:28;27.00;99.90
28725;DHT22;43472;48.980;9.646;2023-08-21T16:41:29;26.50;99.90
28725;DHT22;43472;48.980;9.646;2023-08-21T16:46:31;28.80;99.90
28725;DHT22;43472;48.980;9.646;2023-08-21T16:51:34;27.60;99.90
28725;DHT22;43472;48.980;9.646;2023-08-21T16:56:36;27.00;99.90
28725;DHT22;43472;48.980;9.646;2023-08-21T17:01:38;26.10;99.90
28725;DHT22;43472;48.980;9.646;2023-08-21T17:06:40;25.80;99.90
28725;DHT22;43472;48.980;9.646;2023-08-21T17:11:43;25.50;99.90
28725;DHT22;43472;48.980;9.646;2023-08-21T17:16:45;25.50;99.90
28725;DHT22;43472;48.980;9.646;2023-08-21T17:21:48;25.30;99.90
28725;DHT22;43472;48.980;9.646;2023-08-21T17:26:50;25.30;99.90
28725;DHT22;43472;48.980;9.646;2023-08-21T17:31:52;25.20;99.90
28725;DHT22;43472;48.980;9.646;2023-08-21T17:36:53;25.20;99.90
28725;DHT22;43472;48.980;9.646;2023-08-21T17:41:56;25.20;99.90
28725;DHT22;43472;48.980;9.646;2023-08-21T17:46:58;25.10;99.90
28725;DHT22;43472;48.980;9.646;2023-08-21T17:52:04;25.10;99.90
28725;DHT22;43472;48.980;9.646;2023-08-21T17:57:06;25.00;99.90
28725;DHT22;43472;48.980;9.646;2023-08-21T18:02:08;25.20;99.90
28725;DHT22;43472;48.980;9.646;2023-08-21T18:07:22;25.30;99.90
28725;DHT22;43472;48.980;9.646;2023-08-21T18:12:23;26.60;99.90
28725;DHT22;43472;48.980;9.646;2023-08-21T18:17:25;26.70;99.90
28725;DHT22;43472;48.980;9.646;2023-08-21T18:22:28;26.50;99.90
28725;DHT22;43472;48.980;9.646;2023-08-21T18:27:30;26.60;99.90
28725;DHT22;43472;48.980;9.646;2023-08-21T18:32:32;26.50;99.90
28725;DHT22;43472;48.980;9.646;2023-08-21T18:37:34;26.90;99.90
28725;DHT22;43472;48.980;9.646;2023-08-21T18:42:37;26.80;99.90
28725;DHT22;43472;48.980;9.646;2023-08-21T18:47:39;26.70;99.90
28725;DHT22;43472;48.980;9.646;2023-08-21T18:52:43;26.60;99.90
28725;DHT22;43472;48.980;9.646;2023-08-21T18:57:45;26.50;99.90
28725;DHT22;43472;48.980;9.646;2023-08-21T19:02:46;26.30;99.90
28725;DHT22;43472;48.980;9.646;2023-08-21T19:07:49;26.00;99.90
28725;DHT22;43472;48.980;9.646;2023-08-21T19:12:51;26.00;99.90
28725;DHT22;43472;48.980;9.646;2023-08-21T19:17:55;26.00;99.90
28725;DHT22;43472;48.980;9.646;2023-08-21T19:22:57;25.90;99.90
28725;DHT22;43472;48.980;9.646;2023-08-21T19:27:59;25.90;99.90
28725;DHT22;43472;48.980;9.646;2023-08-21T19:33:04;25.80;99.90
28725;DHT22;43472;48.980;9.646;2023-08-21T19:38:06;25.50;99.90
28725;DHT22;43472;48.980;9.646;2023-08-21T19:43:08;25.50;99.90
28725;DHT22;43472;48.980;9.646;2023-08-21T19:48:10;25.30;99.90
28725;DHT22;43472;48.980;9.646;2023-08-21T19:53:12;25.30;99.90
28725;DHT22;43472;48.980;9.646;2023-08-21T19:58:14;25.30;99.90
28725;DHT22;43472;48.980;9.646;2023-08-21T20:03:16;25.30;99.90
28725;DHT22;43472;48.980;9.646;2023-08-21T20:08:20;25.00;99.90
28725;DHT22;43472;48.980;9.646;2023-08-21T20:13:26;24.90;99.90
28725;DHT22;43472;48.980;9.646;2023-08-21T20:18:28;24.70;99.90
28725;DHT22;43472;48.980;9.646;2023-08-21T20:23:32;24.70;99.90
28725;DHT22;43472;48.980;9.646;2023-08-21T20:28:35;23.60;99.90
28725;DHT22;43472;48.980;9.646;2023-08-21T20:33:37;24.60;99.90
28725;DHT22;43472;48.980;9.646;2023-08-21T20:38:39;24.50;99.90
28725;DHT22;43472;48.980;9.646;2023-08-21T20:43:41;24.40;99.90
28725;DHT22;43472;48.980;9.646;2023-08-21T20:48:43;24.10;99.90
28725;DHT22;43472;48.980;9.646;2023-08-21T20:53:47;24.10;99.90
28725;DHT22;43472;48.980;9.646;2023-08-21T20:58:49;24.10;99.90
28725;DHT22;43472;48.980;9.646;2023-08-21T21:03:51;24.10;99.90
28725;DHT22;43472;48.980;9.646;2023-08-21T21:08:53;24.10;99.90
28725;DHT22;43472;48.980;9.646;2023-08-21T21:13:56;23.90;99.90
28725;DHT22;43472;48.980;9.646;2023-08-21T21:18:58;23.80;99.90
28725;DHT22;43472;48.980;9.646;2023-08-21T21:24:00;23.60;99.90
28725;DHT22;43472;48.980;9.646;2023-08-21T21:29:02;23.40;99.90
28725;DHT22;43472;48.980;9.646;2023-08-21T21:34:07;23.50;99.90
28725;DHT22;43472;48.980;9.646;2023-08-21T21:39:09;23.60;99.90
28725;DHT22;43472;48.980;9.646;2023-08-21T21:44:11;23.60;99.90
28725;DHT22;43472;48.980;9.646;2023-08-21T21:49:14;23.50;99.90
28725;DHT22;43472;48.980;9.646;2023-08-21T21:54:16;23.50;99.90
28725;DHT22;43472;48.980;9.646;2023-08-21T21:59:18;23.50;99.90
28725;DHT22;43472;48.980;9.646;2023-08-21T22:04:19;23.50;99.90
28725;DHT22;43472;48.980;9.646;2023-08-21T22:09:22;23.50;99.90
28725;DHT22;43472;48.980;9.646;2023-08-21T22:14:24;23.50;99.90
28725;DHT22;43472;48.980;9.646;2023-08-21T22:19:26;23.00;99.90
28725;DHT22;43472;48.980;9.646;2023-08-21T22:24:27;23.00;99.90
28725;DHT22;43472;48.980;9.646;2023-08-21T22:29:29;23.00;99.90
28725;DHT22;43472;48.980;9.646;2023-08-21T22:34:33;23.20;99.90
28725;DHT22;43472;48.980;9.646;2023-08-21T22:39:35;23.30;99.90
28725;DHT22;43472;48.980;9.646;2023-08-21T22:44:37;23.20;99.90
28725;DHT22;43472;48.980;9.646;2023-08-21T22:49:40;22.90;99.90
28725;DHT22;43472;48.980;9.646;2023-08-21T22:54:43;22.70;99.90
28725;DHT22;43472;48.980;9.646;2023-08-21T22:59:45;22.80;99.90
28725;DHT22;43472;48.980;9.646;2023-08-21T23:04:47;22.60;99.90
28725;DHT22;43472;48.980;9.646;2023-08-21T23:09:48;22.70;99.90
28725;DHT22;43472;48.980;9.646;2023-08-21T23:14:51;22.70;99.90
28725;DHT22;43472;48.980;9.646;2023-08-21T23:19:53;22.60;99.90
28725;DHT22;43472;48.980;9.646;2023-08-21T23:24:56;22.50;99.90
28725;DHT22;43472;48.980;9.646;2023-08-21T23:29:58;22.40;99.90
28725;DHT22;43472;48.980;9.646;2023-08-21T23:35:00;22.30;99.90
28725;DHT22;43472;48.980;9.646;2023-08-21T23:40:02;22.30;99.90
28725;DHT22;43472;48.980;9.646;2023-08-21T23:45:08;22.30;99.90
28725;DHT22;43472;48.980;9.646;2023-08-21T23:50:10;22.30;99.90
28725;DHT22;43472;48.980;9.646;2023-08-21T23:55:12;22.20;99.90
